Latest Observation

42 Stations

15 Minute Data | America/Los_Angeles
as of 9/5/26 11:24 PM PDT
Station Date Time Temp (°F) RH (%) Dew Pt (°F) Wind Spd (mph) Wind Dir (°) Wind Gust (mph) Latest Rain (In) Daily Rain (In) Daily Min Temp (°F) Daily Max Temp (°F) Daily Max Wind (mph)
Elk Mt. Farm 8/13/26 1500 85.6   7.4 - - - - - - - 51.4   1.1 85.6   7.4 -
Upper Lake 9/5/26 2315 51.8   0.3 74   9 43.9   3.2 0.9 NNW | 338 2.6   0.0 0.00 0.00 40.8   1.3 78.3   2.9 14.4   3.0
Scotts Valley 9/5/26 2315 46.7   0.9 79   9 40.6   3.8 0.3 NNE | 13 1.3   0.7 0.00 0.00 36.4   1.6 80.9   3.6 12.3   0.1
Scotts Valley-South (Bella Vista) 9/5/26 2315 51.0   0.0 67   13 40.4   4.7 0.9 SSW | 207 2.1   0.1 0.00 0.00 41.3   2.4 77.8   2.3 12.0   0.8
Kelseyville 9/5/26 2315 53.5   2.8 71   17 44.2   2.9 3.7 S | 182 5.5   2.4 0.00 0.00 40.6   0.5 78.4   3.7 19.1   4.8
Kelseyville Remote 9/5/26 2315 53.9   1.5 61   13 41.0   3.6 - - - 0.00 0.00 42.2   0.1 79.7   4.2 -
Kelseyville (Clark Drive) 9/5/26 2315 49.7   1.5 - - - - - 0.00 0.00 38.4   2.8 80.4   4.5 -
Kelsey Bench (Oaklea) 9/5/26 2315 53.7   0.6 64   12 41.9   4.0 3.7 S | 173 5.0   0.7 0.00 0.00 44.9   1.1 77.9   3.8 18.2   2.7
Smith Lane (Kelseyville-South) 9/5/26 2315 48.3   1.6 79   8 42.0   4.0 0.4 SE | 138 3.2   0.0 0.00 0.00 39.1   0.1 80.9   3.5 14.4   1.1
Bell Hill-West 9/5/26 2315 50.2   1.2 82   7 44.8   3.3 1.7 SW | 219 3.4   0.7 0.00 0.00 41.9   0.8 78.4   3.8 17.5   1.7
High Valley Ridgeline (Brassfield) 9/3/26 1430 64.3   0.5 52   2 46.4   1.6 12.2 WSW | 242 17.9   7.4 0.00 0.01 55.0   3.7 66.3   0.1 20.5   5.3
Wight Way (Adobe Creek) 9/5/26 2300 49.2   0.8 77   10 42.4   2.2 1.6 NNE | 33 2.7   0.2 0.00 0.00 38.5   0.9 86.8   3.6 14.0   0.0
Ridgeline Top (Brassfield) 9/3/26 1430 66.6   0.4 - - - - - - - 54.8   3.7 69.7   1.1 -
Ridgeline Low (Brassfield) 9/3/26 1430 66.8   0.7 - - - - - - - 56.8   4.6 67.8   0.9 -
Long Valley (Shannon) 6/29/26 1400 84.9   4.6 25   1 44.9   3.2 2.9 ENE | 75 10.2   0.4 0.00 0.00 46.4   0.4 86.9   6.5 13.7   1.8
High Valley Winery 9/3/26 1430 65.6   2.0 49   1 45.9   1.2 9.6 WSW | 238 17.0   7.0 0.00 0.01 57.3   4.2 67.3   2.2 17.0   1.1
Round Mtn Rd. 9/5/26 2030 62.7   2.2 - - - - - - - 44.2   2.3 77.4   3.8 -
Circle O 9/5/26 2315 52.4   2.0 - - - - - - - 41.4   2.5 77.2   3.8 -
Robertsbridge Vineyards 9/5/26 2315 46.0   1.1 78   7 39.6   3.4 - - - - - 41.2   2.5 79.2   3.0 -
Urgency Vineyard 9/5/26 2315 56.3   3.7 57   17 41.2   3.5 3.9 SSW | 212 7.8   3.3 0.00 0.00 39.5   3.6 78.6   4.3 11.8   0.2
Red Hills (Beckstoffer) 9/5/26 2315 58.1   4.0 55   19 42.2   3.9 - - - 0.00 0.00 35.6   5.8 79.3   4.0 -
Winters (Shannon) 9/5/26 2315 54.0   7.5 59   22 39.9   1.0 1.1 SW | 231 5.0   3.7 0.00 0.00 34.6   2.5 77.1   4.4 11.5   3.4
Secret Pond (Shannon) 9/5/26 2315 56.6   4.8 53   23 39.8   4.7 4.7 WNW | 290 9.8   4.6 0.00 0.00 39.6   1.8 75.5   3.4 12.6   3.8
Rolling Knolls (Shannon) 9/5/26 2315 59.9   4.9 51   19 41.5   3.7 3.4 W | 264 8.6   0.9 0.00 0.00 40.6   4.1 78.6   4.2 13.9   0.9
Lower Lake 9/5/26 2315 60.0   7.2 53   26 42.6   3.9 4.3 W | 262 9.9   3.8 0.00 0.00 45.7   1.3 78.0   4.8 17.2   2.7
Adamson Ranch 9/5/26 2315 51.4   0.7 71   9 42.4   3.6 0.6 SW | 235 2.8   2.6 0.00 0.00 40.2   0.4 79.9   3.5 16.4   2.6
Middletown (Diamond D) 9/5/26 2315 51.6   3.1 78   5 45.1   4.7 2.5 N | 355 5.6   1.2 0.00 0.00 43.7   1.5 78.1   2.6 17.3   2.6
Middletown-West (Domaine Helena) 9/5/26 2315 54.4   2.0 68   19 44.1   4.7 3.8 SSW | 195 6.8   3.0 0.00 0.00 39.4   0.5 79.1   2.7 18.3   0.2
Middletown-South 9/5/26 2315 51.5   0.4 78   12 45.0   4.0 1.6 S | 176 2.7   0.5 0.00 0.00 44.6   0.6 77.9   1.9 17.1   1.1
Jim Davis (Langtry) 9/5/26 2315 57.4   0.6 61   14 44.3   4.9 2.2 W | 268 3.5   1.7 0.00 0.00 47.5   1.5 78.8   2.8 16.8   1.3
Napa Valley Basin 9/5/26 2315 47.5   2.7 71   6 38.4   4.6 0.6 N | 0 1.5   1.2 0.00 0.00 38.8   0.6 81.3   3.0 17.5   2.6
Lower Bohn 9/5/26 2315 50.3   0.1 55   15 34.6   6.1 1.0 E | 87 2.8   0.1 0.00 0.00 38.1   1.2 80.9   3.1 17.4   1.2
Upper Bohn-North 9/5/26 2315 53.2   0.4 69   14 43.3   4.5 1.6 SSE | 153 2.6   0.2 0.00 0.00 46.3   1.5 82.5   3.3 11.8   4.9
Snell Peak Blk#9 9/5/26 2315 58.3   0.6 56   13 42.9   4.8 2.1 W | 264 2.8   0.7 0.00 0.00 51.4   3.2 80.5   3.1 14.7   1.2
Coyote Lake West 9/5/26 2315 53.8   0.3 65   10 42.2   3.6 0.1 SW | 228 1.0   0.1 0.00 0.00 46.8   1.9 80.2   3.1 16.5   2.4
Coyote Lake Northeast 9/5/26 2315 53.4   2.3 69   3 43.5   3.3 - - - - - 47.0   0.5 81.2   3.3 -
Coyote Lake East 9/5/26 2315 49.2   1.5 74   6 41.1   3.5 - - - - - 40.3   0.4 81.2   2.8 -
Morgan Valley 9/5/26 2315 58.6   2.5 66   14 47.4   2.8 8.1 WNW | 290 11.7   3.1 0.00 0.00 52.0   3.9 74.0   3.6 18.9   2.9
Mine Pit North 9/5/26 2315 59.3   1.9 56   12 43.6   3.5 1.7 NNW | 337 6.7   1.5 - - 48.3   2.1 79.2   1.7 23.8   3.7
Mine Pit South 9/5/26 2315 60.0   2.2 54   12 43.6   3.1 2.2 W | 266 5.6   1.1 0.00 0.00 50.9   0.7 78.0   1.2 22.0   0.4
Cow Mountain 9/5/26 2315 54.2   3.4 - - 8.0 WNW | 295 12.5   0.7 0.00 0.00 51.4   7.8 67.6   7.1 25.0   0.0
Ukiah-SE (Ruddick) 9/5/26 2315 52.1   1.0 75   6 44.4   2.9 0.7 WSW | 242 2.2   1.1 0.00 0.00 41.4   0.7 80.7   4.9 16.4   2.2
Max     60.0 82 47.4 8.1 - 12.5 0.00 0.00 52.0 86.8 25.0
Avg     53.4 66 42.3 2.4 - 4.9 0.00 - - - -
Min     46.0 51 34.6 0.1 - 1.0 0.00 0.00 34.6 67.6 11.5